Check out our new BloomSky Weather System.

Active alerts

Houston, TX
  Details for Houston, TX Dense Fog Advisory


Thunder radar  blitzortung!


Rain radar more information rain snow radar


Visit our other weather sites:

Template documentation
and downloads

And another site



Weather Underground History page Text

Daily Summary for March 20, 2017 Units:  English    Metric   Both
« Previous Day
Next Day »
Daily Weekly Monthly Yearly Custom
  High: Low: Average:
Temperature: 85.5 °F 67.1 °F 74.6 °F
Dew Point: 69.1 °F 56.3 °F 64.5 °F
Humidity: 97 % 42 % 74 %
Wind Speed: 15.0 mph 0.0 mph 3.8 mph
Wind Gust: 17.0 mph - -
Wind:- - South
Pressure: 30.20 in 30.06 in -
Precipitation: 0.00 in    
Historical Graphs
 
 
Tabular Data for March 20, 2017
Time Temperature Dew Point Pressure Wind Wind Speed Wind Gust Humidity Rainfall Rate (Hourly)
00:00 69.4 °F 67.1 °F 30.19 in South 4.0 mph 7.0 mph 92 % 0.00 in
00:05 69.3 °F 66.9 °F 30.19 in SSW 8.0 mph 8.0 mph 92 % 0.00 in
00:10 69.3 °F 66.9 °F 30.19 in SSW 3.0 mph 8.0 mph 92 % 0.00 in
00:15 69.1 °F 66.9 °F 30.19 in South 4.0 mph 8.0 mph 93 % 0.00 in
00:20 68.9 °F 66.7 °F 30.19 in SE 4.0 mph 8.0 mph 93 % 0.00 in
00:21 68.9 °F 66.7 °F 30.19 in SSE 4.0 mph 8.0 mph 93 % 0.00 in
00:26 68.9 °F 66.7 °F 30.19 in SSE 2.0 mph 6.0 mph 93 % 0.00 in
00:31 68.9 °F 66.7 °F 30.19 in SSE 3.0 mph 6.0 mph 93 % 0.00 in
00:36 68.7 °F 66.9 °F 30.18 in SSE 3.0 mph 6.0 mph 94 % 0.00 in
00:41 68.7 °F 66.9 °F 30.18 in SSE 2.0 mph 6.0 mph 94 % 0.00 in
00:46 68.9 °F 67.1 °F 30.18 in SE 1.0 mph 6.0 mph 94 % 0.00 in
00:51 69.1 °F 67.3 °F 30.18 in South 4.0 mph 6.0 mph 94 % 0.00 in
00:56 69.1 °F 67.3 °F 30.18 in SE 3.0 mph 6.0 mph 94 % 0.00 in
01:01 69.1 °F 67.3 °F 30.18 in ESE 2.0 mph 6.0 mph 94 % 0.00 in
01:06 69.1 °F 67.3 °F 30.18 in SSW 2.0 mph 6.0 mph 94 % 0.00 in
01:08 69.1 °F 67.3 °F 30.18 in SE 2.0 mph 6.0 mph 94 % 0.00 in
01:13 69.3 °F 67.5 °F 30.18 in SE 3.0 mph 6.0 mph 94 % 0.00 in
01:18 69.3 °F 67.5 °F 30.18 in West 6.0 mph 6.0 mph 94 % 0.00 in
01:23 69.3 °F 67.5 °F 30.18 in ESE 1.0 mph 7.0 mph 94 % 0.00 in
01:28 69.3 °F 67.5 °F 30.18 in SE 3.0 mph 9.0 mph 94 % 0.00 in
01:33 69.3 °F 67.5 °F 30.18 in South 6.0 mph 12.0 mph 94 % 0.00 in
01:38 69.4 °F 67.3 °F 30.18 in SSW 3.0 mph 12.0 mph 93 % 0.00 in
01:43 69.3 °F 67.1 °F 30.17 in SSW 6.0 mph 12.0 mph 93 % 0.00 in
01:48 69.3 °F 67.1 °F 30.17 in South 3.0 mph 13.0 mph 93 % 0.00 in
01:53 69.3 °F 67.1 °F 30.17 in SW 9.0 mph 13.0 mph 93 % 0.00 in
01:58 69.1 °F 66.9 °F 30.17 in SSE 3.0 mph 13.0 mph 93 % 0.00 in
02:03 69.1 °F 67.3 °F 30.17 in SE 4.0 mph 9.0 mph 94 % 0.00 in
02:08 69.1 °F 67.3 °F 30.17 in SSW 6.0 mph 9.0 mph 94 % 0.00 in
02:13 69.1 °F 67.3 °F 30.17 in SSW 2.0 mph 9.0 mph 94 % 0.00 in
02:18 69.1 °F 67.3 °F 30.17 in South 6.0 mph 8.0 mph 94 % 0.00 in
02:23 69.1 °F 67.3 °F 30.17 in SSW 1.0 mph 8.0 mph 94 % 0.00 in
02:28 68.7 °F 66.9 °F 30.17 in SSW 1.0 mph 8.0 mph 94 % 0.00 in
02:33 68.7 °F 66.9 °F 30.17 in South 6.0 mph 7.0 mph 94 % 0.00 in
02:38 68.7 °F 66.9 °F 30.17 in SSE 5.0 mph 7.0 mph 94 % 0.00 in
02:43 68.5 °F 66.7 °F 30.16 in SSE 2.0 mph 7.0 mph 94 % 0.00 in
02:48 68.5 °F 66.7 °F 30.16 in SSE 2.0 mph 7.0 mph 94 % 0.00 in
02:53 68.4 °F 66.6 °F 30.16 in SSE 2.0 mph 7.0 mph 94 % 0.00 in
02:58 68.4 °F 66.9 °F 30.16 in South 2.0 mph 6.0 mph 95 % 0.00 in
03:03 68.4 °F 66.9 °F 30.16 in SSW 4.0 mph 6.0 mph 95 % 0.00 in
03:09 68.4 °F 66.9 °F 30.16 in South 3.0 mph 6.0 mph 95 % 0.00 in
03:14 68.4 °F 66.9 °F 30.16 in SSW 1.0 mph 6.0 mph 95 % 0.00 in
03:19 68.4 °F 66.9 °F 30.16 in SSW 4.0 mph 6.0 mph 95 % 0.00 in
03:24 68.4 °F 66.9 °F 30.15 in SSW 1.0 mph 4.0 mph 95 % 0.00 in
03:29 68.4 °F 66.9 °F 30.15 in SSE 2.0 mph 4.0 mph 95 % 0.00 in
03:34 68.4 °F 66.9 °F 30.15 in Calm   4.0 mph 95 % 0.00 in
03:39 68.4 °F 66.9 °F 30.15 in SSE 4.0 mph 5.0 mph 95 % 0.00 in
03:44 68.5 °F 67.1 °F 30.15 in SSW 2.0 mph 6.0 mph 95 % 0.00 in
03:49 68.5 °F 67.1 °F 30.14 in South 1.0 mph 6.0 mph 95 % 0.00 in
03:54 68.5 °F 67.1 °F 30.14 in SSE 4.0 mph 6.0 mph 95 % 0.00 in
03:59 68.7 °F 67.3 °F 30.14 in South 2.0 mph 8.0 mph 95 % 0.00 in
04:04 68.7 °F 67.3 °F 30.14 in SW 5.0 mph 9.0 mph 95 % 0.00 in
04:09 68.9 °F 67.1 °F 30.14 in South 2.0 mph 9.0 mph 94 % 0.00 in
04:14 69.1 °F 67.3 °F 30.14 in South 6.0 mph 10.0 mph 94 % 0.00 in
04:19 69.1 °F 67.3 °F 30.14 in South 2.0 mph 10.0 mph 94 % 0.00 in
04:24 69.1 °F 67.3 °F 30.14 in SSW 3.0 mph 10.0 mph 94 % 0.00 in
04:29 69.1 °F 67.3 °F 30.14 in South 5.0 mph 9.0 mph 94 % 0.00 in
04:34 69.1 °F 67.3 °F 30.14 in South 6.0 mph 10.0 mph 94 % 0.00 in
04:39 69.1 °F 67.3 °F 30.14 in SSW 3.0 mph 10.0 mph 94 % 0.00 in
04:44 69.1 °F 67.3 °F 30.14 in SSW 4.0 mph 10.0 mph 94 % 0.00 in
04:49 69.1 °F 67.3 °F 30.14 in SSE 5.0 mph 7.0 mph 94 % 0.00 in
04:54 69.1 °F 67.3 °F 30.14 in SSE 3.0 mph 7.0 mph 94 % 0.00 in
04:59 69.1 °F 67.3 °F 30.14 in SSW 4.0 mph 9.0 mph 94 % 0.00 in
05:04 69.1 °F 67.3 °F 30.14 in SSW 5.0 mph 9.0 mph 94 % 0.00 in
05:09 69.1 °F 67.3 °F 30.14 in SSE 3.0 mph 9.0 mph 94 % 0.00 in
05:14 68.9 °F 67.1 °F 30.14 in SSE 3.0 mph 9.0 mph 94 % 0.00 in
05:19 68.7 °F 66.9 °F 30.14 in SSE 8.0 mph 9.0 mph 94 % 0.00 in
05:24 68.7 °F 66.9 °F 30.14 in South 2.0 mph 11.0 mph 94 % 0.00 in
05:29 68.7 °F 66.9 °F 30.14 in SW 4.0 mph 12.0 mph 94 % 0.00 in
05:34 68.5 °F 66.7 °F 30.14 in SSE 3.0 mph 12.0 mph 94 % 0.00 in
05:39 68.4 °F 66.6 °F 30.14 in SSW 1.0 mph 12.0 mph 94 % 0.00 in
05:44 68.4 °F 66.6 °F 30.14 in SSE 2.0 mph 9.0 mph 94 % 0.00 in
05:49 68.2 °F 66.4 °F 30.14 in SE 3.0 mph 5.0 mph 94 % 0.00 in
05:54 68.2 °F 66.4 °F 30.14 in SSW 3.0 mph 4.0 mph 94 % 0.00 in
05:59 68.0 °F 66.2 °F 30.14 in South 2.0 mph 5.0 mph 94 % 0.00 in
06:04 67.8 °F 66.4 °F 30.14 in South 4.0 mph 5.0 mph 95 % 0.00 in
06:09 67.8 °F 66.4 °F 30.14 in SSE 2.0 mph 6.0 mph 95 % 0.00 in
06:14 67.8 °F 66.4 °F 30.14 in SSW 1.0 mph 7.0 mph 95 % 0.00 in
06:15 67.8 °F 66.4 °F 30.14 in SSW 2.0 mph 7.0 mph 95 % 0.00 in
06:20 67.8 °F 66.4 °F 30.14 in SW 2.0 mph 7.0 mph 95 % 0.00 in
06:25 67.8 °F 66.4 °F 30.14 in South 3.0 mph 7.0 mph 95 % 0.00 in
06:30 67.8 °F 66.4 °F 30.14 in SSE 5.0 mph 5.0 mph 95 % 0.00 in
06:35 67.8 °F 66.4 °F 30.14 in SSW 5.0 mph 7.0 mph 95 % 0.00 in
06:40 67.8 °F 66.4 °F 30.15 in SSE 4.0 mph 7.0 mph 95 % 0.00 in
06:45 67.8 °F 66.4 °F 30.15 in South 2.0 mph 7.0 mph 95 % 0.00 in
06:50 67.6 °F 66.2 °F 30.15 in South 1.0 mph 7.0 mph 95 % 0.00 in
06:55 67.6 °F 66.4 °F 30.15 in SSE 1.0 mph 6.0 mph 96 % 0.00 in
07:00 67.6 °F 66.4 °F 30.15 in South 1.0 mph 5.0 mph 96 % 0.00 in
07:05 67.5 °F 66.2 °F 30.15 in SSE 1.0 mph 5.0 mph 96 % 0.00 in
07:10 67.5 °F 66.2 °F 30.15 in Calm   5.0 mph 96 % 0.00 in
07:15 67.5 °F 66.2 °F 30.15 in SSE 1.0 mph 3.0 mph 96 % 0.00 in
07:20 67.3 °F 66.0 °F 30.16 in SE 2.0 mph 3.0 mph 96 % 0.00 in
07:25 67.3 °F 66.0 °F 30.16 in South 1.0 mph 3.0 mph 96 % 0.00 in
07:30 67.3 °F 66.0 °F 30.16 in SSE 2.0 mph 3.0 mph 96 % 0.00 in
07:35 67.1 °F 65.8 °F 30.16 in SSW 1.0 mph 3.0 mph 96 % 0.00 in
07:40 67.1 °F 65.8 °F 30.16 in ESE 1.0 mph 3.0 mph 96 % 0.00 in
07:41 67.1 °F 65.8 °F 30.16 in South 2.0 mph 3.0 mph 96 % 0.00 in
07:46 67.1 °F 65.8 °F 30.16 in South 1.0 mph 3.0 mph 96 % 0.00 in
07:51 67.1 °F 65.8 °F 30.17 in SSW 2.0 mph 3.0 mph 96 % 0.00 in
07:56 67.1 °F 65.8 °F 30.17 in Calm   3.0 mph 96 % 0.00 in
08:01 67.1 °F 66.2 °F 30.17 in South 1.0 mph 3.0 mph 97 % 0.00 in
08:06 67.3 °F 66.4 °F 30.17 in SSW 3.0 mph 3.0 mph 97 % 0.00 in
08:11 67.5 °F 66.6 °F 30.17 in SSE 1.0 mph 3.0 mph 97 % 0.00 in
08:16 67.6 °F 66.7 °F 30.17 in SSW 2.0 mph 3.0 mph 97 % 0.00 in
08:21 67.6 °F 66.7 °F 30.17 in SW 3.0 mph 3.0 mph 97 % 0.00 in
08:26 68.0 °F 67.1 °F 30.17 in SSW 2.0 mph 4.0 mph 97 % 0.00 in
08:31 68.5 °F 67.6 °F 30.17 in SSW 2.0 mph 4.0 mph 97 % 0.00 in
08:36 68.7 °F 67.5 °F 30.17 in SSW 3.0 mph 5.0 mph 96 % 0.00 in
08:41 68.7 °F 67.5 °F 30.18 in ESE 3.0 mph 5.0 mph 96 % 0.00 in
08:46 69.1 °F 67.8 °F 30.18 in ESE 3.0 mph 7.0 mph 96 % 0.00 in
08:51 69.3 °F 68.0 °F 30.18 in South 2.0 mph 8.0 mph 96 % 0.00 in
08:56 69.3 °F 67.8 °F 30.18 in SSW 3.0 mph 8.0 mph 95 % 0.00 in
09:01 69.3 °F 67.8 °F 30.18 in SE 2.0 mph 8.0 mph 95 % 0.00 in
09:06 69.4 °F 68.0 °F 30.18 in South 3.0 mph 6.0 mph 95 % 0.00 in
09:11 70.2 °F 68.4 °F 30.18 in SSW 5.0 mph 6.0 mph 94 % 0.00 in
09:16 70.7 °F 68.5 °F 30.18 in SSE 6.0 mph 14.0 mph 93 % 0.00 in
09:21 71.6 °F 69.1 °F 30.18 in SE 3.0 mph 14.0 mph 92 % 0.00 in
09:26 72.0 °F 68.9 °F 30.19 in South 5.0 mph 14.0 mph 90 % 0.00 in
09:31 71.8 °F 68.0 °F 30.19 in SSW 5.0 mph 12.0 mph 88 % 0.00 in
09:36 71.6 °F 67.8 °F 30.19 in SSE 2.0 mph 12.0 mph 88 % 0.00 in
09:41 71.6 °F 67.8 °F 30.19 in SW 1.0 mph 12.0 mph 88 % 0.00 in
09:46 71.6 °F 67.8 °F 30.19 in SSW 2.0 mph 11.0 mph 88 % 0.00 in
09:51 72.0 °F 67.8 °F 30.19 in South 4.0 mph 11.0 mph 87 % 0.00 in
09:56 72.5 °F 68.4 °F 30.20 in SSW 2.0 mph 11.0 mph 87 % 0.00 in
10:02 73.0 °F 68.2 °F 30.20 in SSW 5.0 mph 11.0 mph 85 % 0.00 in
10:07 73.8 °F 68.4 °F 30.20 in South 7.0 mph 12.0 mph 83 % 0.00 in
10:12 74.1 °F 68.0 °F 30.20 in SSW 10.0 mph 12.0 mph 81 % 0.00 in
10:17 74.5 °F 67.8 °F 30.20 in SSE 2.0 mph 14.0 mph 80 % 0.00 in
10:22 74.1 °F 66.7 °F 30.20 in SSW 9.0 mph 15.0 mph 78 % 0.00 in
10:27 73.8 °F 66.4 °F 30.20 in SSW 6.0 mph 15.0 mph 78 % 0.00 in
10:32 73.2 °F 66.4 °F 30.20 in South 8.0 mph 15.0 mph 79 % 0.00 in
10:37 73.0 °F 66.2 °F 30.20 in SSW 4.0 mph 14.0 mph 79 % 0.00 in
10:42 73.8 °F 67.6 °F 30.20 in South 4.0 mph 12.0 mph 81 % 0.00 in
10:47 74.3 °F 66.2 °F 30.20 in SW 8.0 mph 12.0 mph 76 % 0.00 in
10:52 74.5 °F 66.4 °F 30.20 in SSW 3.0 mph 11.0 mph 76 % 0.00 in
10:57 75.0 °F 66.9 °F 30.20 in WSW 2.0 mph 11.0 mph 76 % 0.00 in
11:02 75.7 °F 67.3 °F 30.20 in SSW 4.0 mph 11.0 mph 75 % 0.00 in
11:07 76.5 °F 68.0 °F 30.20 in South 5.0 mph 11.0 mph 75 % 0.00 in
11:12 77.2 °F 67.5 °F 30.20 in SW 6.0 mph 11.0 mph 72 % 0.00 in
11:17 77.5 °F 66.9 °F 30.20 in SSW 7.0 mph 11.0 mph 70 % 0.00 in
11:22 77.4 °F 66.4 °F 30.20 in SSE 6.0 mph 13.0 mph 69 % 0.00 in
11:27 77.5 °F 66.2 °F 30.20 in South 5.0 mph 13.0 mph 68 % 0.00 in
11:32 77.5 °F 65.7 °F 30.20 in SSW 6.0 mph 13.0 mph 67 % 0.00 in
11:37 77.5 °F 66.2 °F 30.19 in SW 8.0 mph 13.0 mph 68 % 0.00 in
11:42 77.7 °F 64.9 °F 30.19 in SW 3.0 mph 13.0 mph 65 % 0.00 in
11:47 78.1 °F 66.2 °F 30.19 in SSW 5.0 mph 14.0 mph 67 % 0.00 in
11:52 78.8 °F 66.9 °F 30.19 in SW 7.0 mph 14.0 mph 67 % 0.00 in
11:57 78.6 °F 66.4 °F 30.19 in West 2.0 mph 14.0 mph 66 % 0.00 in
12:02 78.6 °F 65.5 °F 30.19 in SE 7.0 mph 11.0 mph 64 % 0.00 in
12:07 78.6 °F 66.4 °F 30.19 in WSW 2.0 mph 11.0 mph 66 % 0.00 in
12:12 79.0 °F 66.6 °F 30.19 in SW 10.0 mph 11.0 mph 66 % 0.00 in
12:17 79.2 °F 66.4 °F 30.19 in NW 5.0 mph 12.0 mph 65 % 0.00 in
12:22 79.3 °F 66.0 °F 30.19 in SSE 5.0 mph 12.0 mph 64 % 0.00 in
12:27 79.3 °F 66.0 °F 30.18 in SW 6.0 mph 12.0 mph 64 % 0.00 in
12:32 80.1 °F 66.7 °F 30.18 in SE 5.0 mph 12.0 mph 64 % 0.00 in
12:37 79.9 °F 65.3 °F 30.18 in South 2.0 mph 12.0 mph 61 % 0.00 in
12:42 80.2 °F 66.6 °F 30.18 in SSW 6.0 mph 10.0 mph 63 % 0.00 in
12:47 80.8 °F 64.6 °F 30.18 in South 6.0 mph 10.0 mph 58 % 0.00 in
12:52 81.0 °F 65.8 °F 30.18 in West 2.0 mph 11.0 mph 60 % 0.00 in
12:57 81.3 °F 66.6 °F 30.18 in SW 8.0 mph 11.0 mph 61 % 0.00 in
13:02 81.0 °F 64.2 °F 30.17 in SSW 10.0 mph 13.0 mph 57 % 0.00 in
13:07 81.0 °F 64.8 °F 30.17 in South 3.0 mph 13.0 mph 58 % 0.00 in
13:12 81.7 °F 64.4 °F 30.17 in WSW 2.0 mph 13.0 mph 56 % 0.00 in
13:17 81.9 °F 66.2 °F 30.17 in South 4.0 mph 13.0 mph 59 % 0.00 in
13:22 82.4 °F 65.7 °F 30.16 in SSW 6.0 mph 11.0 mph 57 % 0.00 in
13:27 82.2 °F 64.9 °F 30.16 in SSE 6.0 mph 11.0 mph 56 % 0.00 in
13:32 82.0 °F 63.7 °F 30.16 in SSW 5.0 mph 12.0 mph 54 % 0.00 in
13:37 81.9 °F 63.5 °F 30.16 in SE 6.0 mph 13.0 mph 54 % 0.00 in
13:42 82.0 °F 64.8 °F 30.15 in WSW 8.0 mph 14.0 mph 56 % 0.00 in
13:47 82.2 °F 63.3 °F 30.15 in South 6.0 mph 14.0 mph 53 % 0.00 in
13:52 82.8 °F 64.9 °F 30.15 in SSW 5.0 mph 14.0 mph 55 % 0.00 in
13:57 82.8 °F 65.5 °F 30.15 in SSW 9.0 mph 11.0 mph 56 % 0.00 in
14:02 82.8 °F 63.3 °F 30.14 in ESE 15.0 mph 15.0 mph 52 % 0.00 in
14:07 82.2 °F 64.9 °F 30.14 in WNW 2.0 mph 17.0 mph 56 % 0.00 in
14:12 82.8 °F 66.6 °F 30.13 in SW 2.0 mph 17.0 mph 58 % 0.00 in
14:17 83.5 °F 65.1 °F 30.13 in SSW 6.0 mph 17.0 mph 54 % 0.00 in
14:22 83.5 °F 64.6 °F 30.13 in SE 7.0 mph 11.0 mph 53 % 0.00 in
14:27 83.5 °F 64.0 °F 30.13 in ESE 4.0 mph 13.0 mph 52 % 0.00 in
14:32 83.5 °F 64.0 °F 30.12 in SSE 7.0 mph 13.0 mph 52 % 0.00 in
14:37 83.5 °F 64.6 °F 30.12 in SE 5.0 mph 13.0 mph 53 % 0.00 in
14:42 83.7 °F 63.0 °F 30.12 in SE 5.0 mph 12.0 mph 50 % 0.00 in
14:47 83.7 °F 65.3 °F 30.12 in SSW 2.0 mph 12.0 mph 54 % 0.00 in
14:52 84.0 °F 66.2 °F 30.12 in SSE 6.0 mph 12.0 mph 55 % 0.00 in
14:57 84.0 °F 63.3 °F 30.12 in SSW 7.0 mph 15.0 mph 50 % 0.00 in
15:02 84.0 °F 63.3 °F 30.11 in SSW 3.0 mph 15.0 mph 50 % 0.00 in
15:07 84.2 °F 63.5 °F 30.11 in WSW 5.0 mph 15.0 mph 50 % 0.00 in
15:12 84.7 °F 64.0 °F 30.11 in WSW 9.0 mph 13.0 mph 50 % 0.00 in
15:17 84.9 °F 63.7 °F 30.11 in SSW 5.0 mph 10.0 mph 49 % 0.00 in
15:22 84.7 °F 63.5 °F 30.11 in South 8.0 mph 10.0 mph 49 % 0.00 in
15:27 84.4 °F 61.3 °F 30.10 in SSW 7.0 mph 12.0 mph 46 % 0.00 in
15:33 84.2 °F 61.2 °F 30.10 in SSW 5.0 mph 12.0 mph 46 % 0.00 in
15:37 84.2 °F 61.7 °F 30.10 in SW 9.0 mph 12.0 mph 47 % 0.00 in
15:43 84.2 °F 62.4 °F 30.10 in SSE 2.0 mph 15.0 mph 48 % 0.00 in
15:48 84.6 °F 62.8 °F 30.10 in NW 2.0 mph 15.0 mph 48 % 0.00 in
15:53 84.9 °F 61.9 °F 30.09 in SSE 3.0 mph 15.0 mph 46 % 0.00 in
15:58 85.3 °F 62.8 °F 30.09 in SSW 6.0 mph 11.0 mph 47 % 0.00 in
16:03 85.5 °F 63.5 °F 30.09 in SW 2.0 mph 8.0 mph 48 % 0.00 in
16:08 85.1 °F 62.1 °F 30.09 in SSE 3.0 mph 10.0 mph 46 % 0.00 in
16:13 84.9 °F 61.2 °F 30.09 in SW 3.0 mph 10.0 mph 45 % 0.00 in
16:18 84.9 °F 61.9 °F 30.09 in SSW 3.0 mph 10.0 mph 46 % 0.00 in
16:23 85.1 °F 62.6 °F 30.09 in SSW 5.0 mph 10.0 mph 47 % 0.00 in
16:28 85.5 °F 61.7 °F 30.08 in SSW 3.0 mph 10.0 mph 45 % 0.00 in
16:33 85.5 °F 61.7 °F 30.08 in South 5.0 mph 10.0 mph 45 % 0.00 in
16:38 84.9 °F 60.6 °F 30.08 in SW 1.0 mph 13.0 mph 44 % 0.00 in
16:43 84.9 °F 60.6 °F 30.08 in SSW 4.0 mph 13.0 mph 44 % 0.00 in
16:48 85.3 °F 62.2 °F 30.08 in South 5.0 mph 13.0 mph 46 % 0.00 in
16:53 84.9 °F 61.2 °F 30.07 in SSW 4.0 mph 10.0 mph 45 % 0.00 in
16:58 84.9 °F 61.2 °F 30.07 in SSW 1.0 mph 10.0 mph 45 % 0.00 in
17:03 84.7 °F 60.4 °F 30.07 in SSE 4.0 mph 10.0 mph 44 % 0.00 in
17:08 84.7 °F 61.0 °F 30.07 in SW 4.0 mph 11.0 mph 45 % 0.00 in
17:13 84.7 °F 61.0 °F 30.07 in ESE 6.0 mph 11.0 mph 45 % 0.00 in
17:18 84.6 °F 60.8 °F 30.07 in SSW 4.0 mph 11.0 mph 45 % 0.00 in
17:23 84.4 °F 60.1 °F 30.07 in South 9.0 mph 12.0 mph 44 % 0.00 in
17:28 84.0 °F 60.4 °F 30.07 in SW 6.0 mph 12.0 mph 45 % 0.00 in
17:33 84.0 °F 61.0 °F 30.06 in South 3.0 mph 12.0 mph 46 % 0.00 in
17:38 84.0 °F 60.4 °F 30.06 in SSW 4.0 mph 11.0 mph 45 % 0.00 in
17:43 84.0 °F 59.7 °F 30.06 in WSW 5.0 mph 11.0 mph 44 % 0.00 in
17:48 83.8 °F 59.5 °F 30.06 in South 4.0 mph 11.0 mph 44 % 0.00 in
17:53 83.8 °F 59.0 °F 30.06 in SSW 5.0 mph 13.0 mph 43 % 0.00 in
17:58 83.8 °F 59.0 °F 30.06 in SW 6.0 mph 13.0 mph 43 % 0.00 in
18:03 83.8 °F 58.3 °F 30.06 in SSW 4.0 mph 13.0 mph 42 % 0.00 in
18:08 83.8 °F 58.3 °F 30.06 in WSW 2.0 mph 9.0 mph 42 % 0.00 in
18:13 84.0 °F 59.2 °F 30.06 in SSW 2.0 mph 9.0 mph 43 % 0.00 in
18:18 83.8 °F 59.0 °F 30.06 in South 3.0 mph 9.0 mph 43 % 0.00 in
18:23 83.7 °F 58.8 °F 30.06 in SSW 3.0 mph 7.0 mph 43 % 0.00 in
18:28 83.5 °F 58.6 °F 30.06 in SSE 6.0 mph 9.0 mph 43 % 0.00 in
18:33 83.1 °F 57.6 °F 30.06 in SSW 9.0 mph 10.0 mph 42 % 0.00 in
18:38 82.9 °F 58.1 °F 30.06 in SSW 1.0 mph 10.0 mph 43 % 0.00 in
18:43 82.8 °F 57.9 °F 30.06 in SW 4.0 mph 10.0 mph 43 % 0.00 in
18:48 82.8 °F 57.9 °F 30.06 in SW 3.0 mph 10.0 mph 43 % 0.00 in
18:53 82.6 °F 57.7 °F 30.06 in SW 6.0 mph 6.0 mph 43 % 0.00 in
18:58 82.2 °F 58.8 °F 30.06 in SSW 4.0 mph 8.0 mph 45 % 0.00 in
19:03 82.0 °F 58.6 °F 30.06 in SSW 4.0 mph 8.0 mph 45 % 0.00 in
19:08 81.7 °F 58.3 °F 30.06 in SSW 3.0 mph 8.0 mph 45 % 0.00 in
19:14 81.1 °F 57.7 °F 30.06 in SSE 4.0 mph 8.0 mph 45 % 0.00 in
19:19 80.6 °F 57.9 °F 30.06 in South 1.0 mph 8.0 mph 46 % 0.00 in
19:24 79.9 °F 57.2 °F 30.06 in Calm   7.0 mph 46 % 0.00 in
19:29 79.5 °F 56.8 °F 30.06 in SSW 2.0 mph 7.0 mph 46 % 0.00 in
19:34 79.0 °F 57.0 °F 30.06 in Calm   6.0 mph 47 % 0.00 in
19:39 78.4 °F 56.5 °F 30.06 in South 1.0 mph 6.0 mph 47 % 0.00 in
19:44 78.1 °F 56.3 °F 30.06 in SSW 1.0 mph 6.0 mph 47 % 0.00 in
19:49 77.7 °F 56.5 °F 30.06 in SSW 1.0 mph 4.0 mph 48 % 0.00 in
19:54 77.5 °F 56.8 °F 30.06 in SSE 2.0 mph 4.0 mph 49 % 0.00 in
19:59 77.2 °F 56.5 °F 30.06 in South 1.0 mph 4.0 mph 49 % 0.00 in
20:04 77.0 °F 56.3 °F 30.06 in SSE 2.0 mph 3.0 mph 49 % 0.00 in
20:09 76.8 °F 56.3 °F 30.06 in SSW 2.0 mph 3.0 mph 49 % 0.00 in
20:14 76.6 °F 56.7 °F 30.07 in SSE 1.0 mph 3.0 mph 50 % 0.00 in
20:19 76.3 °F 56.3 °F 30.07 in SSE 2.0 mph 3.0 mph 50 % 0.00 in
20:24 76.1 °F 56.7 °F 30.07 in South 2.0 mph 3.0 mph 51 % 0.00 in
20:30 75.9 °F 56.5 °F 30.07 in South 1.0 mph 5.0 mph 51 % 0.00 in
20:35 75.6 °F 56.7 °F 30.07 in SSW 2.0 mph 5.0 mph 52 % 0.00 in
20:40 75.4 °F 57.0 °F 30.07 in South 1.0 mph 5.0 mph 53 % 0.00 in
20:45 74.8 °F 57.0 °F 30.07 in South 2.0 mph 3.0 mph 54 % 0.00 in
20:50 74.8 °F 57.0 °F 30.07 in South 2.0 mph 4.0 mph 54 % 0.00 in
20:55 74.5 °F 57.2 °F 30.08 in SSW 2.0 mph 4.0 mph 55 % 0.00 in
21:00 74.1 °F 57.4 °F 30.08 in SSW 2.0 mph 4.0 mph 56 % 0.00 in
21:05 73.9 °F 58.3 °F 30.08 in South 4.0 mph 4.0 mph 58 % 0.00 in
21:10 74.1 °F 58.8 °F 30.08 in South 3.0 mph 7.0 mph 59 % 0.00 in
21:15 74.1 °F 59.7 °F 30.08 in SSE 4.0 mph 7.0 mph 61 % 0.00 in
21:20 74.1 °F 60.3 °F 30.08 in South 4.0 mph 7.0 mph 62 % 0.00 in
21:25 74.1 °F 61.2 °F 30.08 in SSW 2.0 mph 7.0 mph 64 % 0.00 in
21:30 73.9 °F 61.3 °F 30.09 in SW 3.0 mph 7.0 mph 65 % 0.00 in
21:35 73.9 °F 61.9 °F 30.09 in SE 3.0 mph 7.0 mph 66 % 0.00 in
21:40 73.6 °F 61.9 °F 30.09 in SSW 3.0 mph 7.0 mph 67 % 0.00 in
21:45 73.6 °F 62.4 °F 30.09 in SSW 4.0 mph 9.0 mph 68 % 0.00 in
21:50 73.6 °F 62.8 °F 30.09 in South 4.0 mph 9.0 mph 69 % 0.00 in
21:55 73.4 °F 62.6 °F 30.09 in SSE 4.0 mph 9.0 mph 69 % 0.00 in
22:01 73.2 °F 62.8 °F 30.09 in SSW 5.0 mph 8.0 mph 70 % 0.00 in
22:06 73.0 °F 62.6 °F 30.09 in SW 6.0 mph 9.0 mph 70 % 0.00 in
22:11 72.9 °F 63.3 °F 30.10 in South 3.0 mph 9.0 mph 72 % 0.00 in
22:16 72.7 °F 63.5 °F 30.10 in SW 5.0 mph 9.0 mph 73 % 0.00 in
22:21 72.5 °F 63.7 °F 30.10 in SSW 3.0 mph 8.0 mph 74 % 0.00 in
22:26 72.3 °F 63.9 °F 30.10 in SW 8.0 mph 8.0 mph 75 % 0.00 in
22:31 72.1 °F 64.6 °F 30.10 in SSE 7.0 mph 10.0 mph 77 % 0.00 in
22:36 72.0 °F 64.4 °F 30.10 in SSW 3.0 mph 13.0 mph 77 % 0.00 in
22:41 71.8 °F 64.9 °F 30.10 in SSE 8.0 mph 13.0 mph 79 % 0.00 in
22:46 71.4 °F 64.6 °F 30.11 in South 4.0 mph 13.0 mph 79 % 0.00 in
22:51 71.2 °F 64.8 °F 30.11 in South 5.0 mph 10.0 mph 80 % 0.00 in
22:56 71.1 °F 64.9 °F 30.11 in South 4.0 mph 10.0 mph 81 % 0.00 in
23:01 70.7 °F 64.9 °F 30.11 in South 5.0 mph 8.0 mph 82 % 0.00 in
23:06 70.5 °F 65.1 °F 30.11 in SSW 7.0 mph 8.0 mph 83 % 0.00 in
23:11 70.3 °F 65.3 °F 30.11 in South 4.0 mph 7.0 mph 84 % 0.00 in
23:16 70.2 °F 65.1 °F 30.11 in South 3.0 mph 8.0 mph 84 % 0.00 in
23:21 69.8 °F 65.1 °F 30.11 in SSW 4.0 mph 8.0 mph 85 % 0.00 in
23:26 69.6 °F 65.3 °F 30.11 in South 2.0 mph 8.0 mph 86 % 0.00 in
23:31 69.4 °F 65.5 °F 30.11 in SSE 5.0 mph 9.0 mph 87 % 0.00 in
23:32 69.4 °F 65.5 °F 30.11 in SSW 3.0 mph 9.0 mph 87 % 0.00 in
23:37 69.3 °F 65.3 °F 30.11 in South 4.0 mph 9.0 mph 87 % 0.00 in
23:42 69.1 °F 65.1 °F 30.10 in SE 2.0 mph 9.0 mph 87 % 0.00 in
23:47 68.9 °F 65.1 °F 30.10 in SE 2.0 mph 8.0 mph 88 % 0.00 in
23:52 68.7 °F 64.9 °F 30.10 in South 4.0 mph 7.0 mph 88 % 0.00 in
23:57 68.7 °F 64.9 °F 30.10 in South 2.0 mph 8.0 mph 88 % 0.00 in
Spring, Texas: Villages of Bridgestone
Compliments of Weather Underground - 3 mb

Script developed by  Jim McMurry - jmcmurry@mwt.net Adapted for the template by  Wim van der Kuil - Leuven-Template.eu

You find our weather info also at:

UK Metoffice

WeatherCloud

Weather Underground

Mid-South Weather Network

AWEKAS

Citizen Weather Observer Program (CWOP)

HAMweather, WeatherForYou, PWS Weather

Equipment we use:

Weather-station
Davis Vantage Vue

Weather-program
Meteohub

Weather-server
Debian 7.9 x86 (Guest)

Provider
DreamHost

Davis Vantage Vue

Meteohub

Debian 7.9 x86 (Guest)

DreamHost